sensor_id;sensor_type;location;lat;lon;timestamp;P1;durP1;ratioP1;P2;durP2;ratioP2
16242;SDS011;11719;51.052;6.982;2022-08-21T00:01:54;4.63;;;3.87;;
16242;SDS011;11719;51.052;6.982;2022-08-21T00:04:20;3.97;;;3.57;;
16242;SDS011;11719;51.052;6.982;2022-08-21T00:06:47;4.63;;;4.17;;
16242;SDS011;11719;51.052;6.982;2022-08-21T00:09:14;11.03;;;9.60;;
16242;SDS011;11719;51.052;6.982;2022-08-21T00:11:40;4.27;;;3.87;;
16242;SDS011;11719;51.052;6.982;2022-08-21T00:14:07;4.57;;;4.17;;
16242;SDS011;11719;51.052;6.982;2022-08-21T00:16:34;4.40;;;4.00;;
16242;SDS011;11719;51.052;6.982;2022-08-21T00:19:00;4.60;;;4.20;;
16242;SDS011;11719;51.052;6.982;2022-08-21T00:21:26;4.20;;;3.80;;
16242;SDS011;11719;51.052;6.982;2022-08-21T00:23:52;3.80;;;3.50;;
16242;SDS011;11719;51.052;6.982;2022-08-21T00:26:18;4.60;;;4.20;;
16242;SDS011;11719;51.052;6.982;2022-08-21T00:28:44;4.37;;;3.97;;
16242;SDS011;11719;51.052;6.982;2022-08-21T00:31:14;4.57;;;4.00;;
16242;SDS011;11719;51.052;6.982;2022-08-21T00:33:41;4.70;;;4.30;;
16242;SDS011;11719;51.052;6.982;2022-08-21T00:36:07;4.73;;;4.30;;
16242;SDS011;11719;51.052;6.982;2022-08-21T00:38:33;4.83;;;3.97;;
16242;SDS011;11719;51.052;6.982;2022-08-21T00:41:00;4.77;;;4.37;;
16242;SDS011;11719;51.052;6.982;2022-08-21T00:43:29;4.57;;;4.17;;
16242;SDS011;11719;51.052;6.982;2022-08-21T00:45:59;4.40;;;4.00;;
16242;SDS011;11719;51.052;6.982;2022-08-21T00:48:26;3.87;;;3.57;;
16242;SDS011;11719;51.052;6.982;2022-08-21T00:50:53;4.50;;;4.10;;
16242;SDS011;11719;51.052;6.982;2022-08-21T00:53:29;4.00;;;3.70;;
16242;SDS011;11719;51.052;6.982;2022-08-21T00:55:56;5.40;;;4.17;;
16242;SDS011;11719;51.052;6.982;2022-08-21T00:58:23;4.63;;;4.23;;
16242;SDS011;11719;51.052;6.982;2022-08-21T01:00:51;4.40;;;4.00;;
16242;SDS011;11719;51.052;6.982;2022-08-21T01:03:21;4.93;;;4.20;;
16242;SDS011;11719;51.052;6.982;2022-08-21T01:05:50;4.50;;;4.10;;
16242;SDS011;11719;51.052;6.982;2022-08-21T01:08:18;4.27;;;3.87;;
16242;SDS011;11719;51.052;6.982;2022-08-21T01:10:45;4.70;;;4.30;;
16242;SDS011;11719;51.052;6.982;2022-08-21T01:13:13;4.30;;;4.00;;
16242;SDS011;11719;51.052;6.982;2022-08-21T01:15:43;4.27;;;3.87;;
16242;SDS011;11719;51.052;6.982;2022-08-21T01:18:13;4.47;;;4.07;;
16242;SDS011;11719;51.052;6.982;2022-08-21T01:20:50;4.50;;;4.10;;
16242;SDS011;11719;51.052;6.982;2022-08-21T01:23:27;3.70;;;3.40;;
16242;SDS011;11719;51.052;6.982;2022-08-21T01:25:54;4.50;;;4.10;;
16242;SDS011;11719;51.052;6.982;2022-08-21T01:28:19;4.50;;;4.10;;
16242;SDS011;11719;51.052;6.982;2022-08-21T01:30:48;4.70;;;4.30;;
16242;SDS011;11719;51.052;6.982;2022-08-21T01:33:16;4.23;;;3.93;;
16242;SDS011;11719;51.052;6.982;2022-08-21T01:35:44;4.82;;;4.43;;
16242;SDS011;11719;51.052;6.982;2022-08-21T01:38:10;3.90;;;3.60;;
16242;SDS011;11719;51.052;6.982;2022-08-21T01:40:37;4.85;;;4.07;;
16242;SDS011;11719;51.052;6.982;2022-08-21T01:43:03;4.60;;;4.20;;
16242;SDS011;11719;51.052;6.982;2022-08-21T01:45:29;4.57;;;4.17;;
16242;SDS011;11719;51.052;6.982;2022-08-21T01:47:55;4.70;;;4.28;;
16242;SDS011;11719;51.052;6.982;2022-08-21T01:50:22;4.30;;;3.90;;
16242;SDS011;11719;51.052;6.982;2022-08-21T01:52:49;4.57;;;4.17;;
16242;SDS011;11719;51.052;6.982;2022-08-21T01:55:16;4.50;;;4.10;;
16242;SDS011;11719;51.052;6.982;2022-08-21T01:57:45;4.83;;;4.40;;
16242;SDS011;11719;51.052;6.982;2022-08-21T02:00:12;4.72;;;4.32;;
16242;SDS011;11719;51.052;6.982;2022-08-21T02:02:42;4.40;;;4.10;;
16242;SDS011;11719;51.052;6.982;2022-08-21T02:05:10;5.03;;;4.53;;
16242;SDS011;11719;51.052;6.982;2022-08-21T02:07:38;4.63;;;4.22;;
16242;SDS011;11719;51.052;6.982;2022-08-21T02:10:08;4.67;;;4.27;;
16242;SDS011;11719;51.052;6.982;2022-08-21T02:12:36;4.90;;;4.40;;
16242;SDS011;11719;51.052;6.982;2022-08-21T02:15:03;4.80;;;4.30;;
16242;SDS011;11719;51.052;6.982;2022-08-21T02:17:41;4.33;;;3.93;;
16242;SDS011;11719;51.052;6.982;2022-08-21T02:20:16;4.50;;;4.10;;
16242;SDS011;11719;51.052;6.982;2022-08-21T02:22:47;4.35;;;4.05;;
16242;SDS011;11719;51.052;6.982;2022-08-21T02:25:12;4.60;;;4.20;;
16242;SDS011;11719;51.052;6.982;2022-08-21T02:27:43;4.55;;;4.15;;
16242;SDS011;11719;51.052;6.982;2022-08-21T02:30:17;4.63;;;4.22;;
16242;SDS011;11719;51.052;6.982;2022-08-21T02:32:49;4.25;;;3.95;;
16242;SDS011;11719;51.052;6.982;2022-08-21T02:35:15;4.50;;;4.10;;
16242;SDS011;11719;51.052;6.982;2022-08-21T02:40:13;4.60;;;4.20;;
16242;SDS011;11719;51.052;6.982;2022-08-21T02:42:40;4.60;;;4.20;;
16242;SDS011;11719;51.052;6.982;2022-08-21T02:45:07;4.37;;;4.00;;
16242;SDS011;11719;51.052;6.982;2022-08-21T02:47:33;4.43;;;4.03;;
16242;SDS011;11719;51.052;6.982;2022-08-21T02:50:00;4.70;;;4.30;;
16242;SDS011;11719;51.052;6.982;2022-08-21T02:52:26;4.60;;;4.20;;
16242;SDS011;11719;51.052;6.982;2022-08-21T02:54:52;4.93;;;4.45;;
16242;SDS011;11719;51.052;6.982;2022-08-21T02:57:17;5.25;;;4.78;;
16242;SDS011;11719;51.052;6.982;2022-08-21T02:59:43;5.25;;;4.75;;
16242;SDS011;11719;51.052;6.982;2022-08-21T03:02:09;4.63;;;4.23;;
16242;SDS011;11719;51.052;6.982;2022-08-21T03:04:36;4.70;;;4.30;;
16242;SDS011;11719;51.052;6.982;2022-08-21T03:07:02;4.87;;;4.47;;
16242;SDS011;11719;51.052;6.982;2022-08-21T03:09:29;4.50;;;4.10;;
16242;SDS011;11719;51.052;6.982;2022-08-21T03:11:54;4.53;;;4.13;;
16242;SDS011;11719;51.052;6.982;2022-08-21T03:14:20;5.90;;;4.30;;
16242;SDS011;11719;51.052;6.982;2022-08-21T03:16:46;4.77;;;4.30;;
16242;SDS011;11719;51.052;6.982;2022-08-21T03:19:12;4.37;;;4.03;;
16242;SDS011;11719;51.052;6.982;2022-08-21T03:21:38;4.77;;;4.37;;
16242;SDS011;11719;51.052;6.982;2022-08-21T03:24:04;4.83;;;4.33;;
16242;SDS011;11719;51.052;6.982;2022-08-21T03:26:31;4.53;;;4.03;;
16242;SDS011;11719;51.052;6.982;2022-08-21T03:28:58;4.70;;;4.30;;
16242;SDS011;11719;51.052;6.982;2022-08-21T03:31:24;4.23;;;3.83;;
16242;SDS011;11719;51.052;6.982;2022-08-21T03:33:54;4.57;;;4.13;;
16242;SDS011;11719;51.052;6.982;2022-08-21T03:36:21;4.80;;;4.30;;
16242;SDS011;11719;51.052;6.982;2022-08-21T03:38:47;4.27;;;3.83;;
16242;SDS011;11719;51.052;6.982;2022-08-21T03:41:13;4.00;;;3.70;;
16242;SDS011;11719;51.052;6.982;2022-08-21T03:43:39;3.83;;;3.53;;
16242;SDS011;11719;51.052;6.982;2022-08-21T03:46:05;4.03;;;3.73;;
16242;SDS011;11719;51.052;6.982;2022-08-21T03:48:32;4.17;;;3.50;;
16242;SDS011;11719;51.052;6.982;2022-08-21T03:51:00;4.30;;;3.90;;
16242;SDS011;11719;51.052;6.982;2022-08-21T03:53:26;4.30;;;3.90;;
16242;SDS011;11719;51.052;6.982;2022-08-21T03:55:52;4.10;;;3.80;;
16242;SDS011;11719;51.052;6.982;2022-08-21T03:58:19;4.13;;;3.73;;
16242;SDS011;11719;51.052;6.982;2022-08-21T04:00:49;4.07;;;3.57;;
16242;SDS011;11719;51.052;6.982;2022-08-21T04:03:18;3.77;;;3.47;;
16242;SDS011;11719;51.052;6.982;2022-08-21T04:05:45;4.17;;;3.77;;
16242;SDS011;11719;51.052;6.982;2022-08-21T04:08:12;4.03;;;3.73;;
16242;SDS011;11719;51.052;6.982;2022-08-21T04:10:40;4.30;;;3.90;;
16242;SDS011;11719;51.052;6.982;2022-08-21T04:13:06;4.50;;;4.10;;
16242;SDS011;11719;51.052;6.982;2022-08-21T04:15:33;4.40;;;4.00;;
16242;SDS011;11719;51.052;6.982;2022-08-21T04:18:00;4.63;;;4.23;;
16242;SDS011;11719;51.052;6.982;2022-08-21T04:20:26;4.43;;;4.03;;
16242;SDS011;11719;51.052;6.982;2022-08-21T04:22:52;4.82;;;4.20;;
16242;SDS011;11719;51.052;6.982;2022-08-21T04:25:20;4.07;;;3.77;;
16242;SDS011;11719;51.052;6.982;2022-08-21T04:27:48;4.23;;;3.83;;
16242;SDS011;11719;51.052;6.982;2022-08-21T04:30:14;4.17;;;3.63;;
16242;SDS011;11719;51.052;6.982;2022-08-21T04:32:44;5.03;;;4.10;;
16242;SDS011;11719;51.052;6.982;2022-08-21T04:35:12;4.13;;;3.72;;
16242;SDS011;11719;51.052;6.982;2022-08-21T04:37:39;3.90;;;3.50;;
16242;SDS011;11719;51.052;6.982;2022-08-21T04:40:06;4.40;;;4.00;;
16242;SDS011;11719;51.052;6.982;2022-08-21T04:42:39;4.37;;;4.00;;
16242;SDS011;11719;51.052;6.982;2022-08-21T04:45:30;4.23;;;3.83;;
16242;SDS011;11719;51.052;6.982;2022-08-21T04:48:03;4.10;;;3.73;;
16242;SDS011;11719;51.052;6.982;2022-08-21T04:53:14;6.73;;;5.53;;
16242;SDS011;11719;51.052;6.982;2022-08-21T04:55:51;4.50;;;4.00;;
16242;SDS011;11719;51.052;6.982;2022-08-21T04:58:20;3.90;;;3.50;;
16242;SDS011;11719;51.052;6.982;2022-08-21T05:00:47;7.17;;;5.70;;
16242;SDS011;11719;51.052;6.982;2022-08-21T05:03:14;4.37;;;4.00;;
16242;SDS011;11719;51.052;6.982;2022-08-21T05:05:41;3.80;;;3.50;;
16242;SDS011;11719;51.052;6.982;2022-08-21T05:08:08;6.47;;;5.70;;
16242;SDS011;11719;51.052;6.982;2022-08-21T05:10:38;5.03;;;4.33;;
16242;SDS011;11719;51.052;6.982;2022-08-21T05:13:05;5.03;;;4.00;;
16242;SDS011;11719;51.052;6.982;2022-08-21T05:15:32;4.10;;;3.80;;
16242;SDS011;11719;51.052;6.982;2022-08-21T05:17:58;4.60;;;4.20;;
16242;SDS011;11719;51.052;6.982;2022-08-21T05:20:23;4.23;;;3.93;;
16242;SDS011;11719;51.052;6.982;2022-08-21T05:22:49;4.33;;;3.93;;
16242;SDS011;11719;51.052;6.982;2022-08-21T05:25:15;5.23;;;4.33;;
16242;SDS011;11719;51.052;6.982;2022-08-21T05:27:42;4.10;;;3.77;;
16242;SDS011;11719;51.052;6.982;2022-08-21T05:30:08;4.03;;;3.73;;
16242;SDS011;11719;51.052;6.982;2022-08-21T05:32:35;3.83;;;3.53;;
16242;SDS011;11719;51.052;6.982;2022-08-21T05:35:02;4.63;;;4.10;;
16242;SDS011;11719;51.052;6.982;2022-08-21T05:37:32;4.23;;;3.90;;
16242;SDS011;11719;51.052;6.982;2022-08-21T05:39:59;4.40;;;4.00;;
16242;SDS011;11719;51.052;6.982;2022-08-21T05:42:25;3.90;;;3.47;;
16242;SDS011;11719;51.052;6.982;2022-08-21T05:44:52;4.20;;;3.72;;
16242;SDS011;11719;51.052;6.982;2022-08-21T05:47:18;4.07;;;3.70;;
16242;SDS011;11719;51.052;6.982;2022-08-21T05:49:44;3.85;;;3.50;;
16242;SDS011;11719;51.052;6.982;2022-08-21T05:52:10;4.10;;;3.70;;
16242;SDS011;11719;51.052;6.982;2022-08-21T05:54:36;4.43;;;4.03;;
16242;SDS011;11719;51.052;6.982;2022-08-21T05:57:02;4.27;;;3.87;;
16242;SDS011;11719;51.052;6.982;2022-08-21T05:59:28;3.88;;;3.58;;
16242;SDS011;11719;51.052;6.982;2022-08-21T06:01:54;3.97;;;3.67;;
16242;SDS011;11719;51.052;6.982;2022-08-21T06:04:20;3.53;;;3.22;;
16242;SDS011;11719;51.052;6.982;2022-08-21T06:06:46;10.10;;;8.33;;
16242;SDS011;11719;51.052;6.982;2022-08-21T06:12:37;8.50;;;6.87;;
16242;SDS011;11719;51.052;6.982;2022-08-21T06:15:03;4.33;;;4.00;;
16242;SDS011;11719;51.052;6.982;2022-08-21T06:17:29;4.03;;;3.63;;
16242;SDS011;11719;51.052;6.982;2022-08-21T06:19:55;4.47;;;4.13;;
16242;SDS011;11719;51.052;6.982;2022-08-21T06:22:21;4.30;;;3.90;;
16242;SDS011;11719;51.052;6.982;2022-08-21T06:24:47;3.90;;;3.47;;
16242;SDS011;11719;51.052;6.982;2022-08-21T06:27:13;4.73;;;3.83;;
16242;SDS011;11719;51.052;6.982;2022-08-21T06:29:40;3.93;;;3.53;;
16242;SDS011;11719;51.052;6.982;2022-08-21T06:32:06;3.83;;;3.53;;
16242;SDS011;11719;51.052;6.982;2022-08-21T06:34:37;4.27;;;3.90;;
16242;SDS011;11719;51.052;6.982;2022-08-21T06:37:04;4.33;;;3.80;;
16242;SDS011;11719;51.052;6.982;2022-08-21T06:39:31;4.63;;;4.23;;
16242;SDS011;11719;51.052;6.982;2022-08-21T06:41:57;4.57;;;3.72;;
16242;SDS011;11719;51.052;6.982;2022-08-21T06:44:24;3.67;;;3.37;;
16242;SDS011;11719;51.052;6.982;2022-08-21T06:46:50;3.80;;;3.50;;
16242;SDS011;11719;51.052;6.982;2022-08-21T06:49:16;4.00;;;3.55;;
16242;SDS011;11719;51.052;6.982;2022-08-21T06:51:42;5.30;;;4.03;;
16242;SDS011;11719;51.052;6.982;2022-08-21T06:54:08;4.45;;;4.05;;
16242;SDS011;11719;51.052;6.982;2022-08-21T06:56:34;3.75;;;3.45;;
16242;SDS011;11719;51.052;6.982;2022-08-21T06:59:02;4.30;;;3.87;;
16242;SDS011;11719;51.052;6.982;2022-08-21T07:01:30;3.73;;;3.43;;
16242;SDS011;11719;51.052;6.982;2022-08-21T07:03:57;4.00;;;3.70;;
16242;SDS011;11719;51.052;6.982;2022-08-21T07:06:23;4.33;;;3.93;;
16242;SDS011;11719;51.052;6.982;2022-08-21T07:08:49;3.90;;;3.60;;
16242;SDS011;11719;51.052;6.982;2022-08-21T07:11:20;3.93;;;3.63;;
16242;SDS011;11719;51.052;6.982;2022-08-21T07:13:49;3.97;;;3.58;;
16242;SDS011;11719;51.052;6.982;2022-08-21T07:16:18;5.40;;;4.88;;
16242;SDS011;11719;51.052;6.982;2022-08-21T07:18:44;12.20;;;9.77;;
16242;SDS011;11719;51.052;6.982;2022-08-21T07:21:10;12.03;;;8.77;;
16242;SDS011;11719;51.052;6.982;2022-08-21T07:23:38;4.13;;;3.73;;
16242;SDS011;11719;51.052;6.982;2022-08-21T07:26:08;7.73;;;5.87;;
16242;SDS011;11719;51.052;6.982;2022-08-21T07:28:35;9.40;;;7.17;;
16242;SDS011;11719;51.052;6.982;2022-08-21T07:31:01;8.37;;;6.97;;
16242;SDS011;11719;51.052;6.982;2022-08-21T07:33:29;12.37;;;7.67;;
16242;SDS011;11719;51.052;6.982;2022-08-21T07:35:57;10.40;;;7.03;;
16242;SDS011;11719;51.052;6.982;2022-08-21T07:38:24;11.50;;;7.03;;
16242;SDS011;11719;51.052;6.982;2022-08-21T07:40:50;12.30;;;6.60;;
16242;SDS011;11719;51.052;6.982;2022-08-21T07:43:20;11.83;;;7.40;;
16242;SDS011;11719;51.052;6.982;2022-08-21T07:45:46;9.70;;;6.80;;
16242;SDS011;11719;51.052;6.982;2022-08-21T07:48:14;11.37;;;6.60;;
16242;SDS011;11719;51.052;6.982;2022-08-21T07:50:40;4.70;;;4.20;;
16242;SDS011;11719;51.052;6.982;2022-08-21T07:53:07;11.00;;;6.70;;
16242;SDS011;11719;51.052;6.982;2022-08-21T07:55:33;9.70;;;5.80;;
16242;SDS011;11719;51.052;6.982;2022-08-21T07:57:59;8.13;;;5.43;;
16242;SDS011;11719;51.052;6.982;2022-08-21T08:00:26;11.80;;;5.87;;
16242;SDS011;11719;51.052;6.982;2022-08-21T08:02:54;9.07;;;5.33;;
16242;SDS011;11719;51.052;6.982;2022-08-21T08:05:22;10.27;;;5.13;;
16242;SDS011;11719;51.052;6.982;2022-08-21T08:07:51;7.80;;;4.17;;
16242;SDS011;11719;51.052;6.982;2022-08-21T08:10:17;8.00;;;4.00;;
16242;SDS011;11719;51.052;6.982;2022-08-21T08:12:44;5.97;;;3.33;;
16242;SDS011;11719;51.052;6.982;2022-08-21T08:15:12;5.83;;;3.70;;
16242;SDS011;11719;51.052;6.982;2022-08-21T08:17:41;9.37;;;4.20;;
16242;SDS011;11719;51.052;6.982;2022-08-21T08:20:08;9.17;;;3.80;;
16242;SDS011;11719;51.052;6.982;2022-08-21T08:22:37;6.77;;;3.33;;
16242;SDS011;11719;51.052;6.982;2022-08-21T08:25:05;9.73;;;3.57;;
16242;SDS011;11719;51.052;6.982;2022-08-21T08:27:33;5.07;;;3.67;;
16242;SDS011;11719;51.052;6.982;2022-08-21T08:29:59;9.07;;;3.80;;
16242;SDS011;11719;51.052;6.982;2022-08-21T08:32:25;7.17;;;3.50;;
16242;SDS011;11719;51.052;6.982;2022-08-21T08:34:50;10.10;;;3.90;;
16242;SDS011;11719;51.052;6.982;2022-08-21T08:37:18;8.83;;;2.87;;
16242;SDS011;11719;51.052;6.982;2022-08-21T08:39:45;7.77;;;3.40;;
16242;SDS011;11719;51.052;6.982;2022-08-21T08:42:13;6.93;;;3.00;;
16242;SDS011;11719;51.052;6.982;2022-08-21T08:44:40;8.87;;;3.30;;
16242;SDS011;11719;51.052;6.982;2022-08-21T08:47:08;7.77;;;3.30;;
16242;SDS011;11719;51.052;6.982;2022-08-21T08:50:02;7.80;;;3.87;;
16242;SDS011;11719;51.052;6.982;2022-08-21T08:53:11;8.20;;;3.20;;
16242;SDS011;11719;51.052;6.982;2022-08-21T08:55:37;6.80;;;3.33;;
16242;SDS011;11719;51.052;6.982;2022-08-21T08:58:12;7.17;;;3.77;;
16242;SDS011;11719;51.052;6.982;2022-08-21T09:00:51;5.00;;;2.67;;
16242;SDS011;11719;51.052;6.982;2022-08-21T09:03:19;8.13;;;3.40;;
16242;SDS011;11719;51.052;6.982;2022-08-21T09:06:02;6.47;;;2.90;;
16242;SDS011;11719;51.052;6.982;2022-08-21T09:15:03;5.17;;;2.80;;
16242;SDS011;11719;51.052;6.982;2022-08-21T09:26:18;6.63;;;2.80;;
16242;SDS011;11719;51.052;6.982;2022-08-21T09:28:52;7.07;;;2.10;;
16242;SDS011;11719;51.052;6.982;2022-08-21T09:31:25;3.35;;;2.22;;
16242;SDS011;11719;51.052;6.982;2022-08-21T09:34:06;10.70;;;2.93;;
16242;SDS011;11719;51.052;6.982;2022-08-21T09:36:42;8.03;;;2.57;;
16242;SDS011;11719;51.052;6.982;2022-08-21T09:39:12;8.10;;;2.33;;
16242;SDS011;11719;51.052;6.982;2022-08-21T09:41:58;5.03;;;2.20;;
16242;SDS011;11719;51.052;6.982;2022-08-21T09:44:27;3.72;;;2.30;;
16242;SDS011;11719;51.052;6.982;2022-08-21T09:46:56;4.93;;;1.98;;
16242;SDS011;11719;51.052;6.982;2022-08-21T09:49:36;5.88;;;2.25;;
16242;SDS011;11719;51.052;6.982;2022-08-21T09:52:06;3.53;;;2.40;;
16242;SDS011;11719;51.052;6.982;2022-08-21T09:54:45;10.00;;;2.47;;
16242;SDS011;11719;51.052;6.982;2022-08-21T09:57:18;7.13;;;2.42;;
16242;SDS011;11719;51.052;6.982;2022-08-21T10:03:18;7.13;;;2.25;;
16242;SDS011;11719;51.052;6.982;2022-08-21T10:05:52;6.53;;;2.15;;
16242;SDS011;11719;51.052;6.982;2022-08-21T10:08:24;4.35;;;2.22;;
16242;SDS011;11719;51.052;6.982;2022-08-21T10:11:01;4.90;;;2.00;;
16242;SDS011;11719;51.052;6.982;2022-08-21T10:16:15;5.32;;;1.45;;
16242;SDS011;11719;51.052;6.982;2022-08-21T10:25:03;2.97;;;1.95;;
16242;SDS011;11719;51.052;6.982;2022-08-21T10:36:39;5.43;;;2.00;;
16242;SDS011;11719;51.052;6.982;2022-08-21T10:39:51;5.93;;;1.63;;
16242;SDS011;11719;51.052;6.982;2022-08-21T10:48:11;4.90;;;2.00;;
16242;SDS011;11719;51.052;6.982;2022-08-21T10:51:28;4.88;;;1.50;;
16242;SDS011;11719;51.052;6.982;2022-08-21T10:57:38;3.85;;;1.65;;
16242;SDS011;11719;51.052;6.982;2022-08-21T11:08:56;6.70;;;2.03;;
16242;SDS011;11719;51.052;6.982;2022-08-21T11:11:46;7.55;;;2.42;;
16242;SDS011;11719;51.052;6.982;2022-08-21T11:17:34;3.63;;;1.52;;
16242;SDS011;11719;51.052;6.982;2022-08-21T11:20:13;4.80;;;1.58;;
16242;SDS011;11719;51.052;6.982;2022-08-21T11:23:23;3.75;;;1.40;;
16242;SDS011;11719;51.052;6.982;2022-08-21T11:26:05;5.97;;;2.22;;
16242;SDS011;11719;51.052;6.982;2022-08-21T11:28:42;4.13;;;1.73;;
16242;SDS011;11719;51.052;6.982;2022-08-21T11:34:15;4.18;;;1.48;;
16242;SDS011;11719;51.052;6.982;2022-08-21T11:37:23;5.15;;;1.48;;
16242;SDS011;11719;51.052;6.982;2022-08-21T11:42:54;5.30;;;1.65;;
16242;SDS011;11719;51.052;6.982;2022-08-21T11:45:53;3.28;;;1.48;;
16242;SDS011;11719;51.052;6.982;2022-08-21T11:54:48;3.25;;;1.50;;
16242;SDS011;11719;51.052;6.982;2022-08-21T12:03:24;3.88;;;1.33;;
16242;SDS011;11719;51.052;6.982;2022-08-21T12:06:03;4.30;;;1.58;;
16242;SDS011;11719;51.052;6.982;2022-08-21T12:08:34;5.40;;;1.55;;
16242;SDS011;11719;51.052;6.982;2022-08-21T12:13:56;4.93;;;1.95;;
16242;SDS011;11719;51.052;6.982;2022-08-21T12:16:36;4.55;;;1.77;;
16242;SDS011;11719;51.052;6.982;2022-08-21T12:24:35;2.17;;;1.30;;
16242;SDS011;11719;51.052;6.982;2022-08-21T12:27:13;3.33;;;1.50;;
16242;SDS011;11719;51.052;6.982;2022-08-21T12:29:55;4.07;;;1.40;;
16242;SDS011;11719;51.052;6.982;2022-08-21T12:32:29;3.85;;;1.30;;
16242;SDS011;11719;51.052;6.982;2022-08-21T12:35:11;2.83;;;1.40;;
16242;SDS011;11719;51.052;6.982;2022-08-21T12:37:40;2.90;;;1.35;;
16242;SDS011;11719;51.052;6.982;2022-08-21T12:40:13;2.33;;;1.20;;
16242;SDS011;11719;51.052;6.982;2022-08-21T12:42:50;2.42;;;1.48;;
16242;SDS011;11719;51.052;6.982;2022-08-21T12:45:30;4.20;;;1.35;;
16242;SDS011;11719;51.052;6.982;2022-08-21T12:48:26;5.43;;;1.55;;
16242;SDS011;11719;51.052;6.982;2022-08-21T12:51:11;4.38;;;1.63;;
16242;SDS011;11719;51.052;6.982;2022-08-21T12:56:18;4.43;;;1.42;;
16242;SDS011;11719;51.052;6.982;2022-08-21T12:59:00;2.75;;;1.45;;
16242;SDS011;11719;51.052;6.982;2022-08-21T13:01:31;4.30;;;1.65;;
16242;SDS011;11719;51.052;6.982;2022-08-21T13:04:12;3.85;;;1.20;;
16242;SDS011;11719;51.052;6.982;2022-08-21T13:06:46;3.25;;;1.45;;
16242;SDS011;11719;51.052;6.982;2022-08-21T13:09:17;4.63;;;1.55;;
16242;SDS011;11719;51.052;6.982;2022-08-21T13:11:50;2.65;;;1.25;;
16242;SDS011;11719;51.052;6.982;2022-08-21T13:14:23;3.22;;;1.52;;
16242;SDS011;11719;51.052;6.982;2022-08-21T13:16:57;3.90;;;1.67;;
16242;SDS011;11719;51.052;6.982;2022-08-21T13:19:25;2.40;;;1.35;;
16242;SDS011;11719;51.052;6.982;2022-08-21T13:21:51;4.07;;;1.27;;
16242;SDS011;11719;51.052;6.982;2022-08-21T13:24:20;3.95;;;1.77;;
16242;SDS011;11719;51.052;6.982;2022-08-21T13:26:49;4.68;;;1.52;;
16242;SDS011;11719;51.052;6.982;2022-08-21T13:29:16;3.65;;;1.80;;
16242;SDS011;11719;51.052;6.982;2022-08-21T13:31:51;3.80;;;1.48;;
16242;SDS011;11719;51.052;6.982;2022-08-21T13:34:24;6.25;;;1.83;;
16242;SDS011;11719;51.052;6.982;2022-08-21T13:36:57;5.97;;;1.70;;
16242;SDS011;11719;51.052;6.982;2022-08-21T13:39:26;4.38;;;2.40;;
16242;SDS011;11719;51.052;6.982;2022-08-21T13:41:54;3.47;;;1.85;;
16242;SDS011;11719;51.052;6.982;2022-08-21T13:44:31;4.63;;;1.63;;
16242;SDS011;11719;51.052;6.982;2022-08-21T13:47:09;5.75;;;1.58;;
16242;SDS011;11719;51.052;6.982;2022-08-21T13:49:45;5.07;;;1.92;;
16242;SDS011;11719;51.052;6.982;2022-08-21T13:52:14;2.65;;;1.38;;
16242;SDS011;11719;51.052;6.982;2022-08-21T13:54:52;4.03;;;1.55;;
16242;SDS011;11719;51.052;6.982;2022-08-21T13:57:33;6.32;;;1.90;;
16242;SDS011;11719;51.052;6.982;2022-08-21T14:03:08;6.70;;;1.52;;
16242;SDS011;11719;51.052;6.982;2022-08-21T14:05:44;5.32;;;1.65;;
16242;SDS011;11719;51.052;6.982;2022-08-21T14:08:12;2.72;;;1.23;;
16242;SDS011;11719;51.052;6.982;2022-08-21T14:10:53;4.90;;;1.58;;
16242;SDS011;11719;51.052;6.982;2022-08-21T14:13:24;2.92;;;1.30;;
16242;SDS011;11719;51.052;6.982;2022-08-21T14:15:59;4.20;;;1.52;;
16242;SDS011;11719;51.052;6.982;2022-08-21T14:18:27;2.38;;;1.08;;
16242;SDS011;11719;51.052;6.982;2022-08-21T14:21:04;4.95;;;1.70;;
16242;SDS011;11719;51.052;6.982;2022-08-21T14:23:34;3.05;;;1.40;;
16242;SDS011;11719;51.052;6.982;2022-08-21T14:26:02;4.38;;;1.48;;
16242;SDS011;11719;51.052;6.982;2022-08-21T14:28:30;2.00;;;1.30;;
16242;SDS011;11719;51.052;6.982;2022-08-21T14:30:58;2.47;;;1.10;;
16242;SDS011;11719;51.052;6.982;2022-08-21T14:33:37;2.75;;;1.17;;
16242;SDS011;11719;51.052;6.982;2022-08-21T14:36:02;3.70;;;1.35;;
16242;SDS011;11719;51.052;6.982;2022-08-21T14:38:29;2.90;;;1.13;;
16242;SDS011;11719;51.052;6.982;2022-08-21T14:40:56;4.43;;;1.17;;
16242;SDS011;11719;51.052;6.982;2022-08-21T14:43:27;1.58;;;0.88;;
16242;SDS011;11719;51.052;6.982;2022-08-21T14:45:54;3.67;;;1.30;;
16242;SDS011;11719;51.052;6.982;2022-08-21T14:48:20;2.50;;;1.10;;
16242;SDS011;11719;51.052;6.982;2022-08-21T14:50:46;2.25;;;1.13;;
16242;SDS011;11719;51.052;6.982;2022-08-21T14:53:12;2.65;;;1.05;;
16242;SDS011;11719;51.052;6.982;2022-08-21T14:55:38;4.30;;;1.95;;
16242;SDS011;11719;51.052;6.982;2022-08-21T14:58:23;3.78;;;1.27;;
16242;SDS011;11719;51.052;6.982;2022-08-21T15:00:50;2.40;;;1.20;;
16242;SDS011;11719;51.052;6.982;2022-08-21T15:03:18;1.80;;;1.25;;
16242;SDS011;11719;51.052;6.982;2022-08-21T15:05:46;3.85;;;1.10;;
16242;SDS011;11719;51.052;6.982;2022-08-21T15:08:13;2.25;;;1.13;;
16242;SDS011;11719;51.052;6.982;2022-08-21T15:10:38;2.05;;;1.00;;
16242;SDS011;11719;51.052;6.982;2022-08-21T15:13:04;1.98;;;0.90;;
16242;SDS011;11719;51.052;6.982;2022-08-21T15:15:36;3.33;;;1.17;;
16242;SDS011;11719;51.052;6.982;2022-08-21T15:18:06;2.40;;;0.93;;
16242;SDS011;11719;51.052;6.982;2022-08-21T15:20:33;2.92;;;1.55;;
16242;SDS011;11719;51.052;6.982;2022-08-21T15:22:59;1.40;;;1.10;;
16242;SDS011;11719;51.052;6.982;2022-08-21T15:25:25;2.17;;;1.15;;
16242;SDS011;11719;51.052;6.982;2022-08-21T15:27:51;2.95;;;1.50;;
16242;SDS011;11719;51.052;6.982;2022-08-21T15:30:17;2.45;;;1.05;;
16242;SDS011;11719;51.052;6.982;2022-08-21T15:32:44;1.92;;;1.00;;
16242;SDS011;11719;51.052;6.982;2022-08-21T15:35:09;2.60;;;1.45;;
16242;SDS011;11719;51.052;6.982;2022-08-21T15:37:35;2.90;;;1.17;;
16242;SDS011;11719;51.052;6.982;2022-08-21T15:40:02;4.32;;;1.38;;
16242;SDS011;11719;51.052;6.982;2022-08-21T15:42:30;2.47;;;1.20;;
16242;SDS011;11719;51.052;6.982;2022-08-21T15:44:56;2.63;;;1.30;;
16242;SDS011;11719;51.052;6.982;2022-08-21T15:47:25;4.25;;;3.83;;
16242;SDS011;11719;51.052;6.982;2022-08-21T15:49:58;2.05;;;1.20;;
16242;SDS011;11719;51.052;6.982;2022-08-21T15:52:25;4.00;;;1.20;;
16242;SDS011;11719;51.052;6.982;2022-08-21T15:54:51;3.15;;;1.38;;
16242;SDS011;11719;51.052;6.982;2022-08-21T15:57:19;1.95;;;1.17;;
16242;SDS011;11719;51.052;6.982;2022-08-21T15:59:49;2.15;;;1.25;;
16242;SDS011;11719;51.052;6.982;2022-08-21T16:02:24;2.70;;;1.20;;
16242;SDS011;11719;51.052;6.982;2022-08-21T16:04:54;3.05;;;1.25;;
16242;SDS011;11719;51.052;6.982;2022-08-21T16:07:21;3.70;;;1.50;;
16242;SDS011;11719;51.052;6.982;2022-08-21T16:09:47;1.95;;;1.00;;
16242;SDS011;11719;51.052;6.982;2022-08-21T16:12:17;2.08;;;1.25;;
16242;SDS011;11719;51.052;6.982;2022-08-21T16:14:52;2.95;;;1.40;;
16242;SDS011;11719;51.052;6.982;2022-08-21T16:17:20;2.08;;;1.10;;
16242;SDS011;11719;51.052;6.982;2022-08-21T16:19:51;2.85;;;1.40;;
16242;SDS011;11719;51.052;6.982;2022-08-21T16:22:17;3.72;;;1.40;;
16242;SDS011;11719;51.052;6.982;2022-08-21T16:24:42;3.28;;;1.48;;
16242;SDS011;11719;51.052;6.982;2022-08-21T16:27:08;2.33;;;1.17;;
16242;SDS011;11719;51.052;6.982;2022-08-21T16:29:35;4.47;;;1.55;;
16242;SDS011;11719;51.052;6.982;2022-08-21T16:32:02;2.97;;;1.42;;
16242;SDS011;11719;51.052;6.982;2022-08-21T16:34:29;2.03;;;0.90;;
16242;SDS011;11719;51.052;6.982;2022-08-21T16:36:55;4.15;;;1.52;;
16242;SDS011;11719;51.052;6.982;2022-08-21T16:39:21;3.40;;;1.23;;
16242;SDS011;11719;51.052;6.982;2022-08-21T16:41:47;4.57;;;1.35;;
16242;SDS011;11719;51.052;6.982;2022-08-21T16:44:15;3.25;;;1.42;;